Aeroporto :
LOGIN :

Iscrizione | Disclaimer

   EN    FR    IT 

 










Sommario :    VFR   VFR Marginale   IFR   IFR Intensivo   IFR Molto Intensivo
Visibilità : 
Base nubi : 
>= 8 km
>= 3000ft
5 / 8 km
1000 / 3000 ft
1500m / 5 km
500 / 1000 ft
800 / 1500m
200 / 500 ft
< 800m
< 200 ft
Simboli :   Temporali  Nebbia  Neve Forte  Precipitazioni Forti  Vento > 20 kt
SIGMETs :   Varie  Temporali  Ghiacco  Turbolenza  Onda orograficha  Ceneri Vulcaniche






- Altitudine del aeroporto : 3 ft
- Codice IATA : LWR


EHLW - Leuuwarden Air Base

ULTIMO METAR :
  • 190300Z AUTO 33012KT 300V360 9999 FEW021 SCT025 05/03 Q1031 BLU

METARs OBSOLETI :
  • 190255Z AUTO 33011KT 300V360 9999 FEW020 05/03 Q1030 BLU
  • 190228Z AUTO 32009KT 280V340 9999 SCT020 04/02 Q1030 WHT
  • 190225Z AUTO 32009KT 290V350 9999 NCD 04/02 Q1030 BLU
  • 190155Z AUTO 31010KT 280V350 9999 NCD 04/01 Q1030 BLU
  • 190125Z AUTO 31009KT 270V330 9999 FEW027 04/02 Q1029 BLU
  • 190055Z AUTO 31009KT 9999 SCT049 05/02 Q1029 BLU
  • 190025Z AUTO 31007KT 270V330 9999 FEW023 SCT042 05/02 Q1029 BLU
  • 190010Z AUTO 31009KT 9999 SCT024 04/02 Q1029 WHT

TAF TAF EHLW
Valido dal 19 a 02 ore il 19 a 14 ore UTC


190136Z 1902/1914 31009KT 9999 SCT025
BECMG 1902/1905 35012KT
TEMPO 1902/1914 35012G24KT FEW012 SCT020CB



MetMap, La meteo Aeronautica in un colpo d'occhio ! - Copyright ORBIFLY Dicembre 2007 - Disclaimer

ORBIFLY MET'MAP TEAM :

Programmazione e sviluppo : Alexandra Zaïnal
Concezione : Baudouin d'Aumeries
Aiuto per la programmazione : Marc-Olivier Méhu
Supporto tecnico e logistico : Manuel Goepfert
Aiuto per la traduzione : Arnaldo La Scala

Contatto : metmap@orbifly.com




FONTI E CREDITI :

   NOAA